sensor_id;sensor_type;location;lat;lon;timestamp;P1;durP1;ratioP1;P2;durP2;ratioP2
64110;SDS011;50401;48.188;11.566;2023-06-22T00:00:51;15.45;;;6.78;;
64110;SDS011;50401;48.188;11.566;2023-06-22T00:03:17;12.95;;;5.78;;
64110;SDS011;50401;48.188;11.566;2023-06-22T00:05:44;13.05;;;5.53;;
64110;SDS011;50401;48.188;11.566;2023-06-22T00:08:10;12.75;;;5.30;;
64110;SDS011;50401;48.188;11.566;2023-06-22T00:10:35;12.10;;;5.22;;
64110;SDS011;50401;48.188;11.566;2023-06-22T00:13:01;14.20;;;5.88;;
64110;SDS011;50401;48.188;11.566;2023-06-22T00:15:26;15.25;;;5.55;;
64110;SDS011;50401;48.188;11.566;2023-06-22T00:17:52;12.38;;;5.22;;
64110;SDS011;50401;48.188;11.566;2023-06-22T00:20:17;15.40;;;5.50;;
64110;SDS011;50401;48.188;11.566;2023-06-22T00:22:43;15.00;;;5.10;;
64110;SDS011;50401;48.188;11.566;2023-06-22T00:25:09;13.77;;;5.47;;
64110;SDS011;50401;48.188;11.566;2023-06-22T00:27:35;11.70;;;5.10;;
64110;SDS011;50401;48.188;11.566;2023-06-22T00:30:01;10.32;;;5.32;;
64110;SDS011;50401;48.188;11.566;2023-06-22T00:32:28;14.30;;;5.60;;
64110;SDS011;50401;48.188;11.566;2023-06-22T00:34:53;14.48;;;5.03;;
64110;SDS011;50401;48.188;11.566;2023-06-22T00:37:19;9.85;;;4.70;;
64110;SDS011;50401;48.188;11.566;2023-06-22T00:39:44;12.15;;;5.43;;
64110;SDS011;50401;48.188;11.566;2023-06-22T00:42:09;18.98;;;5.50;;
64110;SDS011;50401;48.188;11.566;2023-06-22T00:44:35;10.00;;;5.05;;
64110;SDS011;50401;48.188;11.566;2023-06-22T00:47:02;12.35;;;4.88;;
64110;SDS011;50401;48.188;11.566;2023-06-22T00:49:28;12.88;;;5.00;;
64110;SDS011;50401;48.188;11.566;2023-06-22T00:51:53;11.30;;;4.57;;
64110;SDS011;50401;48.188;11.566;2023-06-22T00:54:20;18.33;;;4.70;;
64110;SDS011;50401;48.188;11.566;2023-06-22T00:56:55;11.68;;;5.00;;
64110;SDS011;50401;48.188;11.566;2023-06-22T00:59:23;13.52;;;5.82;;
64110;SDS011;50401;48.188;11.566;2023-06-22T01:01:49;14.73;;;5.55;;
64110;SDS011;50401;48.188;11.566;2023-06-22T01:04:15;12.45;;;5.28;;
64110;SDS011;50401;48.188;11.566;2023-06-22T01:07:02;13.73;;;5.03;;
64110;SDS011;50401;48.188;11.566;2023-06-22T01:09:41;12.27;;;5.05;;
64110;SDS011;50401;48.188;11.566;2023-06-22T01:12:16;12.45;;;5.78;;
64110;SDS011;50401;48.188;11.566;2023-06-22T01:14:47;12.93;;;5.60;;
64110;SDS011;50401;48.188;11.566;2023-06-22T01:17:17;20.10;;;5.93;;
64110;SDS011;50401;48.188;11.566;2023-06-22T01:19:45;17.58;;;6.03;;
64110;SDS011;50401;48.188;11.566;2023-06-22T01:22:13;13.70;;;6.03;;
64110;SDS011;50401;48.188;11.566;2023-06-22T01:27:36;17.58;;;5.80;;
64110;SDS011;50401;48.188;11.566;2023-06-22T01:30:25;22.83;;;6.82;;
64110;SDS011;50401;48.188;11.566;2023-06-22T01:32:54;12.50;;;5.38;;
64110;SDS011;50401;48.188;11.566;2023-06-22T01:35:21;17.70;;;5.82;;
64110;SDS011;50401;48.188;11.566;2023-06-22T01:37:47;16.23;;;5.45;;
64110;SDS011;50401;48.188;11.566;2023-06-22T01:40:14;11.07;;;5.40;;
64110;SDS011;50401;48.188;11.566;2023-06-22T01:42:40;19.27;;;5.95;;
64110;SDS011;50401;48.188;11.566;2023-06-22T01:45:08;20.55;;;6.18;;
64110;SDS011;50401;48.188;11.566;2023-06-22T01:47:35;12.27;;;5.68;;
64110;SDS011;50401;48.188;11.566;2023-06-22T01:50:00;15.20;;;5.60;;
64110;SDS011;50401;48.188;11.566;2023-06-22T01:52:26;12.85;;;5.30;;
64110;SDS011;50401;48.188;11.566;2023-06-22T01:54:51;16.25;;;4.90;;
64110;SDS011;50401;48.188;11.566;2023-06-22T01:57:17;13.38;;;5.07;;
64110;SDS011;50401;48.188;11.566;2023-06-22T02:00:17;12.63;;;4.95;;
64110;SDS011;50401;48.188;11.566;2023-06-22T02:02:37;13.82;;;5.63;;
64110;SDS011;50401;48.188;11.566;2023-06-22T02:05:10;12.80;;;4.88;;
64110;SDS011;50401;48.188;11.566;2023-06-22T02:07:41;19.55;;;5.75;;
64110;SDS011;50401;48.188;11.566;2023-06-22T02:10:14;15.07;;;5.68;;
64110;SDS011;50401;48.188;11.566;2023-06-22T02:12:41;17.60;;;5.85;;
64110;SDS011;50401;48.188;11.566;2023-06-22T02:15:08;16.88;;;5.80;;
64110;SDS011;50401;48.188;11.566;2023-06-22T02:17:35;16.52;;;5.53;;
64110;SDS011;50401;48.188;11.566;2023-06-22T02:20:02;15.40;;;5.88;;
64110;SDS011;50401;48.188;11.566;2023-06-22T02:22:33;11.07;;;5.07;;
64110;SDS011;50401;48.188;11.566;2023-06-22T02:24:58;11.70;;;5.43;;
64110;SDS011;50401;48.188;11.566;2023-06-22T02:27:24;11.38;;;5.20;;
64110;SDS011;50401;48.188;11.566;2023-06-22T02:29:49;11.88;;;4.85;;
64110;SDS011;50401;48.188;11.566;2023-06-22T02:32:14;11.05;;;5.10;;
64110;SDS011;50401;48.188;11.566;2023-06-22T02:34:42;14.25;;;4.85;;
64110;SDS011;50401;48.188;11.566;2023-06-22T02:37:07;14.57;;;5.47;;
64110;SDS011;50401;48.188;11.566;2023-06-22T02:39:35;16.98;;;5.60;;
64110;SDS011;50401;48.188;11.566;2023-06-22T02:42:02;13.20;;;4.75;;
64110;SDS011;50401;48.188;11.566;2023-06-22T02:44:27;14.30;;;5.40;;
64110;SDS011;50401;48.188;11.566;2023-06-22T02:46:52;16.55;;;5.43;;
64110;SDS011;50401;48.188;11.566;2023-06-22T02:49:19;15.23;;;5.88;;
64110;SDS011;50401;48.188;11.566;2023-06-22T02:51:45;10.18;;;5.30;;
64110;SDS011;50401;48.188;11.566;2023-06-22T02:54:12;14.07;;;5.57;;
64110;SDS011;50401;48.188;11.566;2023-06-22T02:56:37;12.43;;;5.07;;
64110;SDS011;50401;48.188;11.566;2023-06-22T02:59:03;15.05;;;6.38;;
64110;SDS011;50401;48.188;11.566;2023-06-22T03:01:28;14.60;;;6.10;;
64110;SDS011;50401;48.188;11.566;2023-06-22T03:03:55;15.27;;;5.47;;
64110;SDS011;50401;48.188;11.566;2023-06-22T03:06:21;17.95;;;5.90;;
64110;SDS011;50401;48.188;11.566;2023-06-22T03:08:53;13.25;;;5.93;;
64110;SDS011;50401;48.188;11.566;2023-06-22T03:11:22;15.88;;;6.43;;
64110;SDS011;50401;48.188;11.566;2023-06-22T03:13:48;13.27;;;5.97;;
64110;SDS011;50401;48.188;11.566;2023-06-22T03:16:13;20.98;;;6.68;;
64110;SDS011;50401;48.188;11.566;2023-06-22T03:18:38;11.20;;;6.03;;
64110;SDS011;50401;48.188;11.566;2023-06-22T03:21:04;18.92;;;6.60;;
64110;SDS011;50401;48.188;11.566;2023-06-22T03:23:30;18.40;;;6.60;;
64110;SDS011;50401;48.188;11.566;2023-06-22T03:25:55;20.05;;;6.28;;
64110;SDS011;50401;48.188;11.566;2023-06-22T03:28:21;16.63;;;6.78;;
64110;SDS011;50401;48.188;11.566;2023-06-22T03:30:46;17.33;;;6.88;;
64110;SDS011;50401;48.188;11.566;2023-06-22T03:33:12;17.45;;;6.43;;
64110;SDS011;50401;48.188;11.566;2023-06-22T03:35:37;17.55;;;6.78;;
64110;SDS011;50401;48.188;11.566;2023-06-22T03:38:03;21.65;;;6.82;;
64110;SDS011;50401;48.188;11.566;2023-06-22T03:40:29;21.13;;;7.05;;
64110;SDS011;50401;48.188;11.566;2023-06-22T03:42:55;18.50;;;7.45;;
64110;SDS011;50401;48.188;11.566;2023-06-22T03:45:20;16.02;;;6.55;;
64110;SDS011;50401;48.188;11.566;2023-06-22T03:47:46;17.20;;;5.88;;
64110;SDS011;50401;48.188;11.566;2023-06-22T03:50:11;15.63;;;7.57;;
64110;SDS011;50401;48.188;11.566;2023-06-22T03:52:36;14.32;;;6.57;;
64110;SDS011;50401;48.188;11.566;2023-06-22T03:55:02;14.98;;;7.35;;
64110;SDS011;50401;48.188;11.566;2023-06-22T03:57:27;15.32;;;6.30;;
64110;SDS011;50401;48.188;11.566;2023-06-22T03:59:54;18.60;;;6.78;;
64110;SDS011;50401;48.188;11.566;2023-06-22T04:02:21;15.95;;;6.70;;
64110;SDS011;50401;48.188;11.566;2023-06-22T04:04:46;18.77;;;6.93;;
64110;SDS011;50401;48.188;11.566;2023-06-22T04:07:12;15.07;;;6.40;;
64110;SDS011;50401;48.188;11.566;2023-06-22T04:09:37;11.52;;;6.50;;
64110;SDS011;50401;48.188;11.566;2023-06-22T04:12:03;15.05;;;6.97;;
64110;SDS011;50401;48.188;11.566;2023-06-22T04:14:28;19.10;;;6.75;;
64110;SDS011;50401;48.188;11.566;2023-06-22T04:16:54;16.85;;;7.05;;
64110;SDS011;50401;48.188;11.566;2023-06-22T04:19:20;17.35;;;6.60;;
64110;SDS011;50401;48.188;11.566;2023-06-22T04:21:45;18.08;;;7.03;;
64110;SDS011;50401;48.188;11.566;2023-06-22T04:24:12;17.88;;;7.03;;
64110;SDS011;50401;48.188;11.566;2023-06-22T04:26:37;20.90;;;7.65;;
64110;SDS011;50401;48.188;11.566;2023-06-22T04:29:06;19.40;;;7.40;;
64110;SDS011;50401;48.188;11.566;2023-06-22T04:31:33;16.23;;;7.55;;
64110;SDS011;50401;48.188;11.566;2023-06-22T04:34:02;17.80;;;6.10;;
64110;SDS011;50401;48.188;11.566;2023-06-22T04:36:35;18.95;;;6.60;;
64110;SDS011;50401;48.188;11.566;2023-06-22T04:39:05;19.13;;;7.25;;
64110;SDS011;50401;48.188;11.566;2023-06-22T04:41:38;21.00;;;7.38;;
64110;SDS011;50401;48.188;11.566;2023-06-22T04:44:11;15.75;;;7.10;;
64110;SDS011;50401;48.188;11.566;2023-06-22T04:46:37;15.63;;;7.07;;
64110;SDS011;50401;48.188;11.566;2023-06-22T04:49:06;21.08;;;7.43;;
64110;SDS011;50401;48.188;11.566;2023-06-22T04:51:36;15.43;;;7.65;;
64110;SDS011;50401;48.188;11.566;2023-06-22T04:54:03;17.92;;;7.55;;
64110;SDS011;50401;48.188;11.566;2023-06-22T04:56:30;16.77;;;7.47;;
64110;SDS011;50401;48.188;11.566;2023-06-22T04:58:56;20.27;;;6.82;;
64110;SDS011;50401;48.188;11.566;2023-06-22T05:01:22;13.15;;;6.13;;
64110;SDS011;50401;48.188;11.566;2023-06-22T05:03:48;23.63;;;8.25;;
64110;SDS011;50401;48.188;11.566;2023-06-22T05:06:13;18.13;;;7.45;;
64110;SDS011;50401;48.188;11.566;2023-06-22T05:08:39;19.70;;;6.93;;
64110;SDS011;50401;48.188;11.566;2023-06-22T05:11:05;27.42;;;7.78;;
64110;SDS011;50401;48.188;11.566;2023-06-22T05:13:30;16.52;;;7.10;;
64110;SDS011;50401;48.188;11.566;2023-06-22T05:15:56;22.85;;;6.80;;
64110;SDS011;50401;48.188;11.566;2023-06-22T05:18:26;18.40;;;7.97;;
64110;SDS011;50401;48.188;11.566;2023-06-22T05:20:54;20.08;;;7.10;;
64110;SDS011;50401;48.188;11.566;2023-06-22T05:23:19;15.80;;;7.15;;
64110;SDS011;50401;48.188;11.566;2023-06-22T05:25:45;17.10;;;7.78;;
64110;SDS011;50401;48.188;11.566;2023-06-22T05:28:10;29.27;;;8.82;;
64110;SDS011;50401;48.188;11.566;2023-06-22T05:30:36;18.98;;;8.25;;
64110;SDS011;50401;48.188;11.566;2023-06-22T05:33:02;26.33;;;8.52;;
64110;SDS011;50401;48.188;11.566;2023-06-22T05:35:27;15.32;;;6.85;;
64110;SDS011;50401;48.188;11.566;2023-06-22T05:37:54;24.52;;;7.25;;
64110;SDS011;50401;48.188;11.566;2023-06-22T05:40:20;17.30;;;7.90;;
64110;SDS011;50401;48.188;11.566;2023-06-22T05:42:46;19.63;;;6.88;;
64110;SDS011;50401;48.188;11.566;2023-06-22T05:45:11;24.38;;;8.10;;
64110;SDS011;50401;48.188;11.566;2023-06-22T05:47:36;22.30;;;7.55;;
64110;SDS011;50401;48.188;11.566;2023-06-22T05:50:02;25.05;;;7.47;;
64110;SDS011;50401;48.188;11.566;2023-06-22T05:52:31;24.55;;;7.45;;
64110;SDS011;50401;48.188;11.566;2023-06-22T05:54:57;16.55;;;7.15;;
64110;SDS011;50401;48.188;11.566;2023-06-22T05:57:22;28.85;;;6.95;;
64110;SDS011;50401;48.188;11.566;2023-06-22T05:59:47;17.90;;;6.60;;
64110;SDS011;50401;48.188;11.566;2023-06-22T06:02:13;24.63;;;8.13;;
64110;SDS011;50401;48.188;11.566;2023-06-22T06:04:39;21.65;;;7.32;;
64110;SDS011;50401;48.188;11.566;2023-06-22T06:07:04;19.20;;;7.25;;
64110;SDS011;50401;48.188;11.566;2023-06-22T06:09:30;15.77;;;7.38;;
64110;SDS011;50401;48.188;11.566;2023-06-22T06:11:55;27.17;;;7.93;;
64110;SDS011;50401;48.188;11.566;2023-06-22T06:14:21;21.63;;;7.25;;
64110;SDS011;50401;48.188;11.566;2023-06-22T06:16:46;22.58;;;8.35;;
64110;SDS011;50401;48.188;11.566;2023-06-22T06:19:11;24.77;;;7.80;;
64110;SDS011;50401;48.188;11.566;2023-06-22T06:21:37;21.10;;;9.15;;
64110;SDS011;50401;48.188;11.566;2023-06-22T06:24:02;22.95;;;8.73;;
64110;SDS011;50401;48.188;11.566;2023-06-22T06:26:28;19.08;;;8.80;;
64110;SDS011;50401;48.188;11.566;2023-06-22T06:28:55;26.67;;;8.98;;
64110;SDS011;50401;48.188;11.566;2023-06-22T06:31:21;22.75;;;8.88;;
64110;SDS011;50401;48.188;11.566;2023-06-22T06:33:49;21.95;;;8.68;;
64110;SDS011;50401;48.188;11.566;2023-06-22T06:36:15;20.80;;;8.90;;
64110;SDS011;50401;48.188;11.566;2023-06-22T06:38:41;20.80;;;8.30;;
64110;SDS011;50401;48.188;11.566;2023-06-22T06:41:06;27.60;;;9.02;;
64110;SDS011;50401;48.188;11.566;2023-06-22T06:43:32;23.23;;;9.40;;
64110;SDS011;50401;48.188;11.566;2023-06-22T06:45:57;22.25;;;9.10;;
64110;SDS011;50401;48.188;11.566;2023-06-22T06:48:23;22.20;;;8.38;;
64110;SDS011;50401;48.188;11.566;2023-06-22T06:50:48;23.83;;;8.98;;
64110;SDS011;50401;48.188;11.566;2023-06-22T06:53:13;23.33;;;8.90;;
64110;SDS011;50401;48.188;11.566;2023-06-22T06:55:39;19.50;;;8.82;;
64110;SDS011;50401;48.188;11.566;2023-06-22T06:58:04;17.48;;;8.35;;
64110;SDS011;50401;48.188;11.566;2023-06-22T07:00:32;21.58;;;8.23;;
64110;SDS011;50401;48.188;11.566;2023-06-22T07:02:58;21.30;;;7.35;;
64110;SDS011;50401;48.188;11.566;2023-06-22T07:05:23;19.77;;;7.90;;
64110;SDS011;50401;48.188;11.566;2023-06-22T07:07:49;21.27;;;7.95;;
64110;SDS011;50401;48.188;11.566;2023-06-22T07:10:14;18.80;;;8.50;;
64110;SDS011;50401;48.188;11.566;2023-06-22T07:12:40;27.83;;;9.20;;
64110;SDS011;50401;48.188;11.566;2023-06-22T07:15:06;20.25;;;7.93;;
64110;SDS011;50401;48.188;11.566;2023-06-22T07:17:33;25.52;;;9.55;;
64110;SDS011;50401;48.188;11.566;2023-06-22T07:19:59;30.30;;;9.65;;
64110;SDS011;50401;48.188;11.566;2023-06-22T07:22:26;21.13;;;8.77;;
64110;SDS011;50401;48.188;11.566;2023-06-22T07:24:51;20.02;;;9.23;;
64110;SDS011;50401;48.188;11.566;2023-06-22T07:27:17;24.25;;;8.30;;
64110;SDS011;50401;48.188;11.566;2023-06-22T07:29:44;19.30;;;8.15;;
64110;SDS011;50401;48.188;11.566;2023-06-22T07:32:09;30.25;;;10.00;;
64110;SDS011;50401;48.188;11.566;2023-06-22T07:34:35;19.80;;;8.52;;
64110;SDS011;50401;48.188;11.566;2023-06-22T07:37:00;23.77;;;9.48;;
64110;SDS011;50401;48.188;11.566;2023-06-22T07:39:26;29.08;;;9.25;;
64110;SDS011;50401;48.188;11.566;2023-06-22T07:41:51;26.17;;;8.70;;
64110;SDS011;50401;48.188;11.566;2023-06-22T07:44:17;15.82;;;6.95;;
64110;SDS011;50401;48.188;11.566;2023-06-22T07:49:27;21.42;;;8.02;;
64110;SDS011;50401;48.188;11.566;2023-06-22T07:51:53;28.42;;;9.23;;
64110;SDS011;50401;48.188;11.566;2023-06-22T07:54:19;30.02;;;9.65;;
64110;SDS011;50401;48.188;11.566;2023-06-22T07:59:14;21.90;;;9.23;;
64110;SDS011;50401;48.188;11.566;2023-06-22T08:01:39;27.45;;;11.18;;
64110;SDS011;50401;48.188;11.566;2023-06-22T08:04:04;28.30;;;9.90;;
64110;SDS011;50401;48.188;11.566;2023-06-22T08:06:30;28.38;;;8.50;;
64110;SDS011;50401;48.188;11.566;2023-06-22T08:08:56;28.58;;;9.68;;
64110;SDS011;50401;48.188;11.566;2023-06-22T08:11:23;27.85;;;9.13;;
64110;SDS011;50401;48.188;11.566;2023-06-22T08:13:50;21.20;;;9.00;;
64110;SDS011;50401;48.188;11.566;2023-06-22T08:16:15;19.75;;;8.40;;
64110;SDS011;50401;48.188;11.566;2023-06-22T08:18:40;29.33;;;10.15;;
64110;SDS011;50401;48.188;11.566;2023-06-22T08:21:06;33.33;;;10.75;;
64110;SDS011;50401;48.188;11.566;2023-06-22T08:23:31;29.88;;;9.68;;
64110;SDS011;50401;48.188;11.566;2023-06-22T08:25:57;31.58;;;10.98;;
64110;SDS011;50401;48.188;11.566;2023-06-22T08:28:22;27.80;;;8.75;;
64110;SDS011;50401;48.188;11.566;2023-06-22T08:30:48;29.88;;;8.82;;
64110;SDS011;50401;48.188;11.566;2023-06-22T08:33:13;28.02;;;8.88;;
64110;SDS011;50401;48.188;11.566;2023-06-22T08:35:38;28.05;;;10.05;;
64110;SDS011;50401;48.188;11.566;2023-06-22T08:38:04;29.45;;;8.88;;
64110;SDS011;50401;48.188;11.566;2023-06-22T08:40:29;24.80;;;8.50;;
64110;SDS011;50401;48.188;11.566;2023-06-22T08:42:56;29.48;;;9.23;;
64110;SDS011;50401;48.188;11.566;2023-06-22T08:45:21;26.83;;;9.20;;
64110;SDS011;50401;48.188;11.566;2023-06-22T08:47:47;34.63;;;9.13;;
64110;SDS011;50401;48.188;11.566;2023-06-22T08:50:12;24.13;;;9.43;;
64110;SDS011;50401;48.188;11.566;2023-06-22T08:52:38;28.50;;;8.95;;
64110;SDS011;50401;48.188;11.566;2023-06-22T08:55:08;27.23;;;9.18;;
64110;SDS011;50401;48.188;11.566;2023-06-22T08:57:34;19.67;;;8.20;;
64110;SDS011;50401;48.188;11.566;2023-06-22T09:00:02;25.50;;;11.32;;
64110;SDS011;50401;48.188;11.566;2023-06-22T09:02:30;24.50;;;9.23;;
64110;SDS011;50401;48.188;11.566;2023-06-22T09:04:56;32.28;;;8.93;;
64110;SDS011;50401;48.188;11.566;2023-06-22T09:07:22;24.42;;;8.85;;
64110;SDS011;50401;48.188;11.566;2023-06-22T09:09:49;27.35;;;9.25;;
64110;SDS011;50401;48.188;11.566;2023-06-22T09:12:15;26.63;;;8.50;;
64110;SDS011;50401;48.188;11.566;2023-06-22T09:14:40;21.95;;;7.70;;
64110;SDS011;50401;48.188;11.566;2023-06-22T09:17:06;30.55;;;9.00;;
64110;SDS011;50401;48.188;11.566;2023-06-22T09:19:31;25.67;;;7.47;;
64110;SDS011;50401;48.188;11.566;2023-06-22T09:21:57;33.08;;;9.27;;
64110;SDS011;50401;48.188;11.566;2023-06-22T09:24:22;24.63;;;9.10;;
64110;SDS011;50401;48.188;11.566;2023-06-22T09:26:47;27.58;;;8.57;;
64110;SDS011;50401;48.188;11.566;2023-06-22T09:29:13;28.23;;;8.05;;
64110;SDS011;50401;48.188;11.566;2023-06-22T09:31:38;29.02;;;8.00;;
64110;SDS011;50401;48.188;11.566;2023-06-22T09:34:04;32.40;;;9.23;;
64110;SDS011;50401;48.188;11.566;2023-06-22T09:36:29;24.42;;;8.38;;
64110;SDS011;50401;48.188;11.566;2023-06-22T09:38:55;25.00;;;8.38;;
64110;SDS011;50401;48.188;11.566;2023-06-22T09:41:21;24.17;;;8.30;;
64110;SDS011;50401;48.188;11.566;2023-06-22T09:43:47;27.23;;;8.52;;
64110;SDS011;50401;48.188;11.566;2023-06-22T09:48:41;25.08;;;8.82;;
64110;SDS011;50401;48.188;11.566;2023-06-22T09:51:06;29.45;;;8.85;;
64110;SDS011;50401;48.188;11.566;2023-06-22T09:53:32;20.98;;;8.18;;
64110;SDS011;50401;48.188;11.566;2023-06-22T09:55:59;25.58;;;8.77;;
64110;SDS011;50401;48.188;11.566;2023-06-22T09:58:25;26.98;;;8.75;;
64110;SDS011;50401;48.188;11.566;2023-06-22T10:00:50;27.88;;;8.65;;
64110;SDS011;50401;48.188;11.566;2023-06-22T10:03:16;31.40;;;10.50;;
64110;SDS011;50401;48.188;11.566;2023-06-22T10:05:41;29.00;;;9.20;;
64110;SDS011;50401;48.188;11.566;2023-06-22T10:08:07;38.58;;;9.68;;
64110;SDS011;50401;48.188;11.566;2023-06-22T10:10:35;27.05;;;8.90;;
64110;SDS011;50401;48.188;11.566;2023-06-22T10:13:02;28.45;;;8.20;;
64110;SDS011;50401;48.188;11.566;2023-06-22T10:15:38;28.13;;;8.63;;
64110;SDS011;50401;48.188;11.566;2023-06-22T10:18:03;30.63;;;9.07;;
64110;SDS011;50401;48.188;11.566;2023-06-22T10:20:29;24.83;;;8.45;;
64110;SDS011;50401;48.188;11.566;2023-06-22T10:22:54;23.55;;;8.13;;
64110;SDS011;50401;48.188;11.566;2023-06-22T10:25:20;20.52;;;9.05;;
64110;SDS011;50401;48.188;11.566;2023-06-22T10:27:46;23.83;;;8.40;;
64110;SDS011;50401;48.188;11.566;2023-06-22T10:30:12;30.25;;;9.13;;
64110;SDS011;50401;48.188;11.566;2023-06-22T10:32:38;26.98;;;8.35;;
64110;SDS011;50401;48.188;11.566;2023-06-22T10:35:04;29.83;;;8.52;;
64110;SDS011;50401;48.188;11.566;2023-06-22T10:37:30;27.30;;;9.50;;
64110;SDS011;50401;48.188;11.566;2023-06-22T10:39:58;20.52;;;8.57;;
64110;SDS011;50401;48.188;11.566;2023-06-22T10:42:23;31.83;;;8.85;;
64110;SDS011;50401;48.188;11.566;2023-06-22T10:44:49;28.65;;;8.82;;
64110;SDS011;50401;48.188;11.566;2023-06-22T10:47:14;24.45;;;7.95;;
64110;SDS011;50401;48.188;11.566;2023-06-22T10:49:40;24.05;;;8.18;;
64110;SDS011;50401;48.188;11.566;2023-06-22T10:52:06;20.80;;;8.52;;
64110;SDS011;50401;48.188;11.566;2023-06-22T10:54:33;40.72;;;9.10;;
64110;SDS011;50401;48.188;11.566;2023-06-22T10:56:59;26.77;;;8.73;;
64110;SDS011;50401;48.188;11.566;2023-06-22T10:59:24;27.33;;;9.05;;
64110;SDS011;50401;48.188;11.566;2023-06-22T11:01:51;31.60;;;9.40;;
64110;SDS011;50401;48.188;11.566;2023-06-22T11:04:17;29.30;;;8.77;;
64110;SDS011;50401;48.188;11.566;2023-06-22T11:06:42;31.45;;;8.80;;
64110;SDS011;50401;48.188;11.566;2023-06-22T11:09:08;26.75;;;9.00;;
64110;SDS011;50401;48.188;11.566;2023-06-22T11:11:34;21.05;;;8.63;;
64110;SDS011;50401;48.188;11.566;2023-06-22T11:13:59;30.70;;;9.40;;
64110;SDS011;50401;48.188;11.566;2023-06-22T11:16:25;37.05;;;9.20;;
64110;SDS011;50401;48.188;11.566;2023-06-22T11:18:50;31.85;;;9.25;;
64110;SDS011;50401;48.188;11.566;2023-06-22T11:21:15;21.92;;;8.38;;
64110;SDS011;50401;48.188;11.566;2023-06-22T11:23:41;35.95;;;9.35;;
64110;SDS011;50401;48.188;11.566;2023-06-22T11:26:07;38.22;;;9.20;;
64110;SDS011;50401;48.188;11.566;2023-06-22T11:28:33;37.08;;;8.75;;
64110;SDS011;50401;48.188;11.566;2023-06-22T11:30:58;29.23;;;9.63;;
64110;SDS011;50401;48.188;11.566;2023-06-22T11:33:24;23.83;;;8.63;;
64110;SDS011;50401;48.188;11.566;2023-06-22T11:35:49;43.90;;;9.45;;
64110;SDS011;50401;48.188;11.566;2023-06-22T11:38:15;30.13;;;9.57;;
64110;SDS011;50401;48.188;11.566;2023-06-22T11:40:41;31.92;;;9.07;;
64110;SDS011;50401;48.188;11.566;2023-06-22T11:43:07;26.13;;;8.60;;
64110;SDS011;50401;48.188;11.566;2023-06-22T11:45:32;31.83;;;9.38;;
64110;SDS011;50401;48.188;11.566;2023-06-22T11:47:57;28.50;;;9.27;;
64110;SDS011;50401;48.188;11.566;2023-06-22T11:50:23;28.23;;;8.57;;
64110;SDS011;50401;48.188;11.566;2023-06-22T11:52:49;30.38;;;8.88;;
64110;SDS011;50401;48.188;11.566;2023-06-22T11:55:14;48.03;;;9.63;;
64110;SDS011;50401;48.188;11.566;2023-06-22T11:57:51;26.55;;;8.30;;
64110;SDS011;50401;48.188;11.566;2023-06-22T12:00:19;32.85;;;9.23;;
64110;SDS011;50401;48.188;11.566;2023-06-22T12:02:45;32.05;;;9.50;;
64110;SDS011;50401;48.188;11.566;2023-06-22T12:05:11;31.98;;;9.05;;
64110;SDS011;50401;48.188;11.566;2023-06-22T12:07:37;29.40;;;8.13;;
64110;SDS011;50401;48.188;11.566;2023-06-22T12:10:03;40.75;;;9.63;;
64110;SDS011;50401;48.188;11.566;2023-06-22T12:12:29;34.75;;;9.20;;
64110;SDS011;50401;48.188;11.566;2023-06-22T12:14:54;33.13;;;10.25;;
64110;SDS011;50401;48.188;11.566;2023-06-22T12:17:20;37.25;;;9.20;;
64110;SDS011;50401;48.188;11.566;2023-06-22T12:19:45;24.83;;;8.35;;
64110;SDS011;50401;48.188;11.566;2023-06-22T12:22:11;24.92;;;9.13;;
64110;SDS011;50401;48.188;11.566;2023-06-22T12:24:36;35.10;;;8.55;;
64110;SDS011;50401;48.188;11.566;2023-06-22T12:27:02;29.08;;;8.70;;
64110;SDS011;50401;48.188;11.566;2023-06-22T12:29:28;28.00;;;8.73;;
64110;SDS011;50401;48.188;11.566;2023-06-22T12:31:54;34.10;;;8.50;;
64110;SDS011;50401;48.188;11.566;2023-06-22T12:34:20;22.25;;;8.43;;
64110;SDS011;50401;48.188;11.566;2023-06-22T12:36:45;34.03;;;8.65;;
64110;SDS011;50401;48.188;11.566;2023-06-22T12:39:13;26.20;;;8.57;;
64110;SDS011;50401;48.188;11.566;2023-06-22T12:41:38;27.80;;;8.68;;
64110;SDS011;50401;48.188;11.566;2023-06-22T12:44:04;24.40;;;8.05;;
64110;SDS011;50401;48.188;11.566;2023-06-22T12:46:29;29.60;;;8.70;;
64110;SDS011;50401;48.188;11.566;2023-06-22T12:49:01;36.60;;;9.40;;
64110;SDS011;50401;48.188;11.566;2023-06-22T12:51:27;35.83;;;8.85;;
64110;SDS011;50401;48.188;11.566;2023-06-22T12:53:52;33.40;;;8.88;;
64110;SDS011;50401;48.188;11.566;2023-06-22T12:56:17;28.88;;;8.82;;
64110;SDS011;50401;48.188;11.566;2023-06-22T12:58:43;27.50;;;8.35;;
64110;SDS011;50401;48.188;11.566;2023-06-22T13:01:08;31.00;;;8.68;;
64110;SDS011;50401;48.188;11.566;2023-06-22T13:03:33;34.63;;;8.73;;
64110;SDS011;50401;48.188;11.566;2023-06-22T13:05:59;31.25;;;8.95;;
64110;SDS011;50401;48.188;11.566;2023-06-22T13:08:24;25.33;;;8.32;;
64110;SDS011;50401;48.188;11.566;2023-06-22T13:10:50;28.52;;;8.13;;
64110;SDS011;50401;48.188;11.566;2023-06-22T13:13:15;29.10;;;8.02;;
64110;SDS011;50401;48.188;11.566;2023-06-22T13:15:40;27.27;;;7.82;;
64110;SDS011;50401;48.188;11.566;2023-06-22T13:18:06;35.55;;;8.77;;
64110;SDS011;50401;48.188;11.566;2023-06-22T13:20:31;30.83;;;7.97;;
64110;SDS011;50401;48.188;11.566;2023-06-22T13:22:57;29.67;;;7.80;;
64110;SDS011;50401;48.188;11.566;2023-06-22T13:25:22;26.90;;;8.27;;
64110;SDS011;50401;48.188;11.566;2023-06-22T13:27:51;26.48;;;8.05;;
64110;SDS011;50401;48.188;11.566;2023-06-22T13:30:17;24.05;;;8.00;;
64110;SDS011;50401;48.188;11.566;2023-06-22T13:32:42;17.58;;;8.13;;
64110;SDS011;50401;48.188;11.566;2023-06-22T13:35:08;28.48;;;8.50;;
64110;SDS011;50401;48.188;11.566;2023-06-22T13:37:34;40.30;;;10.30;;
64110;SDS011;50401;48.188;11.566;2023-06-22T13:40:00;25.60;;;8.10;;
64110;SDS011;50401;48.188;11.566;2023-06-22T13:42:28;32.60;;;8.88;;
64110;SDS011;50401;48.188;11.566;2023-06-22T13:44:53;25.70;;;8.20;;
64110;SDS011;50401;48.188;11.566;2023-06-22T13:47:19;40.53;;;8.90;;
64110;SDS011;50401;48.188;11.566;2023-06-22T13:49:47;30.75;;;8.85;;
64110;SDS011;50401;48.188;11.566;2023-06-22T13:52:18;27.00;;;8.63;;
64110;SDS011;50401;48.188;11.566;2023-06-22T13:54:44;25.83;;;8.63;;
64110;SDS011;50401;48.188;11.566;2023-06-22T13:57:09;30.70;;;8.10;;
64110;SDS011;50401;48.188;11.566;2023-06-22T13:59:34;30.00;;;9.45;;
64110;SDS011;50401;48.188;11.566;2023-06-22T14:02:00;19.02;;;7.85;;
64110;SDS011;50401;48.188;11.566;2023-06-22T14:04:25;26.08;;;7.97;;
64110;SDS011;50401;48.188;11.566;2023-06-22T14:06:51;33.60;;;8.93;;
64110;SDS011;50401;48.188;11.566;2023-06-22T14:09:16;31.80;;;7.72;;
64110;SDS011;50401;48.188;11.566;2023-06-22T14:11:42;39.80;;;8.10;;
64110;SDS011;50401;48.188;11.566;2023-06-22T14:14:07;30.10;;;8.52;;
64110;SDS011;50401;48.188;11.566;2023-06-22T14:16:34;32.30;;;8.27;;
64110;SDS011;50401;48.188;11.566;2023-06-22T14:18:59;27.02;;;7.63;;
64110;SDS011;50401;48.188;11.566;2023-06-22T14:21:25;29.70;;;7.88;;
64110;SDS011;50401;48.188;11.566;2023-06-22T14:23:51;24.90;;;7.93;;
64110;SDS011;50401;48.188;11.566;2023-06-22T14:26:16;38.50;;;8.15;;